createdAt,value
2023-01-17T00:02:19.338Z,4.20
2023-01-17T00:05:04.053Z,4.27
2023-01-17T00:07:46.250Z,4.45
2023-01-17T00:10:17.621Z,4.68
2023-01-17T00:12:49.712Z,4.33
2023-01-17T00:15:20.450Z,4.39
2023-01-17T00:17:50.697Z,4.61
2023-01-17T00:20:38.794Z,4.36
2023-01-17T00:23:21.975Z,4.43
2023-01-17T00:26:06.546Z,4.36
2023-01-17T00:28:35.353Z,4.06
2023-01-17T00:31:03.841Z,4.22
2023-01-17T00:33:31.091Z,4.22
2023-01-17T00:36:01.496Z,4.24
2023-01-17T00:38:30.393Z,4.14
2023-01-17T00:41:02.598Z,4.13
2023-01-17T00:43:45.553Z,4.11
2023-01-17T00:46:27.652Z,4.14
2023-01-17T00:49:09.786Z,4.21
2023-01-17T00:51:54.732Z,4.07
2023-01-17T00:54:36.956Z,4.10
2023-01-17T00:57:19.934Z,4.46
2023-01-17T01:00:02.328Z,4.57
2023-01-17T01:02:44.818Z,4.73
2023-01-17T01:05:27.998Z,4.85
2023-01-17T01:08:13.227Z,4.50
2023-01-17T01:10:55.343Z,4.49
2023-01-17T01:13:38.746Z,4.69
2023-01-17T01:16:21.236Z,4.75
2023-01-17T01:19:03.929Z,4.74
2023-01-17T01:21:46.189Z,4.64
2023-01-17T01:24:31.393Z,4.67
2023-01-17T01:27:13.548Z,4.86
2023-01-17T01:29:55.682Z,4.41
2023-01-17T01:32:38.032Z,4.58
2023-01-17T01:35:08.328Z,4.67
2023-01-17T01:37:37.834Z,4.73
2023-01-17T01:40:12.019Z,4.68
2023-01-17T01:42:51.223Z,4.60
2023-01-17T01:45:23.071Z,4.52
2023-01-17T01:47:56.743Z,4.64
2023-01-17T01:50:26.506Z,4.59
2023-01-17T01:53:01.527Z,4.64
2023-01-17T01:55:37.333Z,4.65
2023-01-17T01:58:11.252Z,4.53
2023-01-17T02:00:43.236Z,4.42
2023-01-17T02:03:17.334Z,4.40
2023-01-17T02:05:47.278Z,4.39
2023-01-17T02:08:19.740Z,4.22
2023-01-17T02:10:52.512Z,4.12
2023-01-17T02:13:23.467Z,4.07
2023-01-17T02:16:04.417Z,4.02
2023-01-17T02:18:45.106Z,3.97
2023-01-17T02:21:25.216Z,3.97
2023-01-17T02:24:28.922Z,3.85
2023-01-17T02:27:14.283Z,3.80
2023-01-17T02:30:16.527Z,3.75
2023-01-17T02:32:56.059Z,3.68
2023-01-17T02:35:36.268Z,3.63
2023-01-17T02:38:17.209Z,3.68
2023-01-17T02:40:50.409Z,3.63
2023-01-17T02:43:21.610Z,3.61
2023-01-17T02:45:51.138Z,3.68
2023-01-17T02:48:27.319Z,3.73
2023-01-17T02:51:22.998Z,3.75
2023-01-17T02:54:06.219Z,3.77
2023-01-17T02:56:49.276Z,3.76
2023-01-17T02:59:33.334Z,3.66
2023-01-17T03:02:17.312Z,3.70
2023-01-17T03:04:55.089Z,3.65
2023-01-17T03:07:28.692Z,3.65
2023-01-17T03:10:01.933Z,3.61
2023-01-17T03:12:32.399Z,3.60
2023-01-17T03:15:02.186Z,3.63
2023-01-17T03:17:35.096Z,3.59
2023-01-17T03:20:08.169Z,3.58
2023-01-17T03:22:37.676Z,3.57
2023-01-17T03:25:08.295Z,3.50
2023-01-17T03:27:37.955Z,3.47
2023-01-17T03:30:09.208Z,3.52
2023-01-17T03:32:38.714Z,3.57
2023-01-17T03:35:12.271Z,3.44
2023-01-17T03:37:42.262Z,3.42
2023-01-17T03:40:13.164Z,3.47
2023-01-17T03:42:45.783Z,3.52
2023-01-17T03:45:15.344Z,3.50
2023-01-17T03:47:45.069Z,3.54
2023-01-17T03:50:17.382Z,3.62
2023-01-17T03:52:49.016Z,3.63
2023-01-17T03:55:18.841Z,3.65
2023-01-17T03:57:48.445Z,3.75
2023-01-17T04:00:18.720Z,3.76
2023-01-17T04:02:48.295Z,3.77
2023-01-17T04:05:20.507Z,3.61
2023-01-17T04:07:51.706Z,3.64
2023-01-17T04:10:21.630Z,3.64
2023-01-17T04:12:51.163Z,3.63
2023-01-17T04:15:21.382Z,3.68
2023-01-17T04:17:51.002Z,3.66
2023-01-17T04:20:31.963Z,3.78
2023-01-17T04:23:01.784Z,3.68
2023-01-17T04:25:32.127Z,3.68
2023-01-17T04:28:04.344Z,3.59
2023-01-17T04:30:35.339Z,3.60
2023-01-17T04:33:05.294Z,3.53
2023-01-17T04:35:37.399Z,3.56
2023-01-17T04:38:07.137Z,3.54
2023-01-17T04:40:36.722Z,3.60
2023-01-17T04:43:06.262Z,3.57
2023-01-17T04:45:35.788Z,3.60
2023-01-17T04:48:06.282Z,3.68
2023-01-17T04:50:38.385Z,3.70
2023-01-17T04:53:08.242Z,3.62
2023-01-17T04:55:37.758Z,3.59
2023-01-17T04:58:07.290Z,3.57
2023-01-17T05:00:36.810Z,3.63
2023-01-17T05:03:07.262Z,3.56
2023-01-17T05:05:39.385Z,3.53
2023-01-17T05:08:08.890Z,3.43
2023-01-17T05:10:38.478Z,3.50
2023-01-17T05:13:08.100Z,3.51
2023-01-17T05:15:39.128Z,3.48
2023-01-17T05:18:09.084Z,3.34
2023-01-17T05:20:41.546Z,3.46
2023-01-17T05:23:11.625Z,3.46
2023-01-17T05:25:44.821Z,3.53
2023-01-17T05:28:15.609Z,3.49
2023-01-17T05:30:45.203Z,3.49
2023-01-17T05:33:14.773Z,3.53
2023-01-17T05:35:46.915Z,3.57
2023-01-17T05:38:16.437Z,3.53
2023-01-17T05:40:45.989Z,3.59
2023-01-17T05:43:15.693Z,3.51
2023-01-17T05:45:45.205Z,3.61
2023-01-17T05:48:14.768Z,3.60
2023-01-17T05:50:46.959Z,3.26
2023-01-17T05:53:19.184Z,2.94
2023-01-17T05:55:49.715Z,2.76
2023-01-17T05:58:21.062Z,2.82
2023-01-17T06:00:51.788Z,2.85
2023-01-17T06:03:21.472Z,2.92
2023-01-17T06:05:53.536Z,2.84
2023-01-17T06:08:23.596Z,2.78
2023-01-17T06:10:53.187Z,2.79
2023-01-17T06:13:23.276Z,2.81
2023-01-17T06:15:52.837Z,2.85
2023-01-17T06:18:22.439Z,2.87
2023-01-17T06:20:57.963Z,2.86
2023-01-17T06:23:28.347Z,2.98
2023-01-17T06:25:58.113Z,3.08
2023-01-17T06:28:27.621Z,2.94
2023-01-17T06:30:57.154Z,3.02
2023-01-17T06:33:26.806Z,2.85
2023-01-17T06:35:58.950Z,2.86
2023-01-17T06:38:30.020Z,2.85
2023-01-17T06:41:00.667Z,2.79
2023-01-17T06:43:33.727Z,2.81
2023-01-17T06:46:03.368Z,2.84
2023-01-17T06:48:33.044Z,2.84
2023-01-17T06:51:05.166Z,2.88
2023-01-17T06:53:34.721Z,2.92
2023-01-17T06:56:04.315Z,2.93
2023-01-17T06:58:34.092Z,3.02
2023-01-17T07:01:09.190Z,2.84
2023-01-17T07:03:38.845Z,2.95
2023-01-17T07:06:11.825Z,2.98
2023-01-17T07:08:41.405Z,3.10
2023-01-17T07:11:11.079Z,3.07
2023-01-17T07:13:41.177Z,2.93
2023-01-17T07:16:11.540Z,2.93
2023-01-17T07:18:41.075Z,2.90
2023-01-17T07:21:17.837Z,2.84
2023-01-17T07:23:48.227Z,2.76
2023-01-17T07:26:20.635Z,2.57
2023-01-17T07:28:50.227Z,2.41
2023-01-17T07:31:19.821Z,2.23
2023-01-17T07:33:49.354Z,2.07
2023-01-17T07:36:21.494Z,1.80
2023-01-17T07:38:51.053Z,1.71
2023-01-17T07:41:20.623Z,1.76
2023-01-17T07:43:50.215Z,1.80
2023-01-17T07:46:20.178Z,1.88
2023-01-17T07:48:49.687Z,1.93
2023-01-17T07:51:22.020Z,1.91
2023-01-17T07:53:51.566Z,2.02
2023-01-17T07:56:21.162Z,2.08
2023-01-17T07:58:50.728Z,2.32
2023-01-17T08:01:20.425Z,2.39
2023-01-17T08:03:54.961Z,2.37
2023-01-17T08:06:29.313Z,2.41
2023-01-17T08:08:59.587Z,2.44
2023-01-17T08:11:29.302Z,2.58
2023-01-17T08:14:00.161Z,2.52
2023-01-17T08:16:30.730Z,2.72
2023-01-17T08:19:00.599Z,2.59
2023-01-17T08:21:32.740Z,2.83
2023-01-17T08:24:02.388Z,2.88
2023-01-17T08:26:31.907Z,2.71
2023-01-17T08:29:03.342Z,2.82
2023-01-17T08:31:36.751Z,2.94
2023-01-17T08:34:06.664Z,2.85
2023-01-17T08:36:38.746Z,3.00
2023-01-17T08:39:08.465Z,2.92
2023-01-17T08:41:38.576Z,3.00
2023-01-17T08:44:08.352Z,2.93
2023-01-17T08:46:40.990Z,3.13
2023-01-17T08:49:13.449Z,3.15
2023-01-17T08:51:45.651Z,3.07
2023-01-17T08:54:15.532Z,3.21
2023-01-17T08:56:47.002Z,3.29
2023-01-17T08:59:16.764Z,3.28
2023-01-17T09:01:46.429Z,3.39
2023-01-17T09:04:16.713Z,3.40
2023-01-17T09:06:49.054Z,3.52
2023-01-17T09:09:19.349Z,3.49
2023-01-17T09:11:48.861Z,3.68
2023-01-17T09:14:18.592Z,3.65
2023-01-17T09:16:48.617Z,3.84
2023-01-17T09:19:18.646Z,3.72
2023-01-17T09:21:50.748Z,3.97
2023-01-17T09:24:20.281Z,3.87
2023-01-17T09:26:49.811Z,4.05
2023-01-17T09:29:20.434Z,3.78
2023-01-17T09:31:50.002Z,3.73
2023-01-17T09:34:19.956Z,3.82
2023-01-17T09:36:52.060Z,3.87
2023-01-17T09:39:21.651Z,3.73
2023-01-17T09:41:57.386Z,3.87
2023-01-17T09:44:28.733Z,4.00
2023-01-17T09:47:01.624Z,4.11
2023-01-17T09:49:38.278Z,4.33
2023-01-17T09:52:13.813Z,4.29
2023-01-17T09:54:45.278Z,4.36
2023-01-17T09:57:39.092Z,4.59
2023-01-17T10:00:24.425Z,4.74
2023-01-17T10:03:06.179Z,4.30
2023-01-17T10:05:49.037Z,3.94
2023-01-17T10:08:33.364Z,4.04
2023-01-17T10:11:20.647Z,3.88
2023-01-17T10:14:01.097Z,3.77
2023-01-17T10:16:43.278Z,3.75
2023-01-17T10:19:30.676Z,3.88
2023-01-17T10:22:31.161Z,3.68
2023-01-17T10:25:17.759Z,3.75
2023-01-17T10:27:54.136Z,3.78
2023-01-17T10:30:26.939Z,3.80
2023-01-17T10:32:59.434Z,3.80
2023-01-17T10:35:33.419Z,3.77
2023-01-17T10:38:08.644Z,3.83
2023-01-17T10:40:45.330Z,3.87
2023-01-17T10:43:24.835Z,3.85
2023-01-17T10:45:56.336Z,3.98
2023-01-17T10:48:38.007Z,4.01
2023-01-17T10:51:24.771Z,3.68
2023-01-17T10:54:10.486Z,3.86
2023-01-17T10:56:43.542Z,4.03
2023-01-17T10:59:21.413Z,3.84
2023-01-17T11:01:51.407Z,4.05
2023-01-17T11:04:24.142Z,3.93
2023-01-17T11:07:14.744Z,3.91
2023-01-17T11:09:46.356Z,3.82
2023-01-17T11:12:27.609Z,3.85
2023-01-17T11:15:04.602Z,4.06
2023-01-17T11:17:35.450Z,4.04
2023-01-17T11:20:20.154Z,4.06
2023-01-17T11:23:08.520Z,4.22
2023-01-17T11:25:38.915Z,4.04
2023-01-17T11:28:24.130Z,4.12
2023-01-17T11:30:55.725Z,4.15
2023-01-17T11:33:45.343Z,4.07
2023-01-17T11:36:20.843Z,4.14
2023-01-17T11:39:03.573Z,4.20
2023-01-17T11:41:36.616Z,4.22
2023-01-17T11:44:25.884Z,4.18
2023-01-17T11:47:19.153Z,4.26
2023-01-17T11:49:51.073Z,4.10
2023-01-17T11:52:26.274Z,4.37
2023-01-17T11:54:57.847Z,4.19
2023-01-17T11:57:30.271Z,3.97
2023-01-17T12:00:13.248Z,4.09
2023-01-17T12:03:13.993Z,3.91
2023-01-17T12:05:56.129Z,4.07
2023-01-17T12:08:39.480Z,4.01
2023-01-17T12:11:16.735Z,4.10
2023-01-17T12:14:00.726Z,4.15
2023-01-17T12:16:42.117Z,4.15
2023-01-17T12:19:38.088Z,3.90
2023-01-17T12:22:24.711Z,3.88
2023-01-17T12:25:21.847Z,3.75
2023-01-17T12:28:00.285Z,3.72
2023-01-17T12:30:46.773Z,3.73
2023-01-17T12:33:27.935Z,3.74
2023-01-17T12:36:01.085Z,3.80
2023-01-17T12:38:35.079Z,3.98
2023-01-17T12:41:10.290Z,3.91
2023-01-17T12:43:44.521Z,3.64
2023-01-17T12:46:21.397Z,3.78
2023-01-17T12:48:58.044Z,3.94
2023-01-17T12:51:32.284Z,3.80
2023-01-17T12:54:07.960Z,3.75
2023-01-17T12:56:43.691Z,3.96
2023-01-17T12:59:17.960Z,3.80
2023-01-17T13:01:57.830Z,3.74
2023-01-17T13:04:38.457Z,3.96
2023-01-17T13:07:24.268Z,3.89
2023-01-17T13:10:02.265Z,3.92
2023-01-17T13:12:37.245Z,3.93
2023-01-17T13:15:19.019Z,3.91
2023-01-17T13:17:51.268Z,4.09
2023-01-17T13:20:31.893Z,3.97
2023-01-17T13:23:15.083Z,3.81
2023-01-17T13:25:50.732Z,3.77
2023-01-17T13:28:30.737Z,3.68
2023-01-17T13:31:16.130Z,3.82
2023-01-17T13:34:00.788Z,3.87
2023-01-17T13:36:50.813Z,3.79
2023-01-17T13:39:34.809Z,3.88
2023-01-17T13:42:13.191Z,4.10
2023-01-17T13:44:42.760Z,4.20
2023-01-17T13:47:41.006Z,4.13
2023-01-17T13:50:40.781Z,3.92
2023-01-17T13:53:40.506Z,4.18
2023-01-17T13:56:16.843Z,4.17
2023-01-17T13:59:02.804Z,3.95
2023-01-17T14:01:53.938Z,4.15
2023-01-17T14:04:24.710Z,4.31
2023-01-17T14:07:01.229Z,4.15
2023-01-17T14:09:39.956Z,4.22
2023-01-17T14:12:29.704Z,4.30
2023-01-17T14:15:01.124Z,4.21
2023-01-17T14:18:08.283Z,4.21
2023-01-17T14:20:49.846Z,4.12
2023-01-17T14:23:28.258Z,4.09
2023-01-17T14:26:01.765Z,4.11
2023-01-17T14:28:36.956Z,4.22
2023-01-17T14:31:14.084Z,4.08
2023-01-17T14:33:44.508Z,3.96
2023-01-17T14:36:22.199Z,4.02
2023-01-17T14:38:51.963Z,4.09
2023-01-17T14:41:24.423Z,4.01
2023-01-17T14:43:58.447Z,3.94
2023-01-17T14:46:31.124Z,4.10
2023-01-17T14:49:06.561Z,4.05
2023-01-17T14:51:38.522Z,3.91
2023-01-17T14:54:21.120Z,4.20
2023-01-17T14:56:50.667Z,3.74
2023-01-17T14:59:24.503Z,3.93
2023-01-17T15:02:07.255Z,4.15
2023-01-17T15:04:39.883Z,3.55
2023-01-17T15:07:15.316Z,3.49
2023-01-17T15:09:47.171Z,3.46
2023-01-17T15:12:17.101Z,4.16
2023-01-17T15:14:49.505Z,3.87
2023-01-17T15:17:24.503Z,3.56
2023-01-17T15:19:58.412Z,3.41
2023-01-17T15:22:29.853Z,3.05
2023-01-17T15:25:00.342Z,3.25
2023-01-17T15:27:30.689Z,3.37
2023-01-17T15:30:04.276Z,3.28
2023-01-17T15:32:33.985Z,3.43
2023-01-17T15:35:06.255Z,3.22
2023-01-17T15:37:39.875Z,2.96
2023-01-17T15:40:19.093Z,3.15
2023-01-17T15:42:51.697Z,2.49
2023-01-17T15:45:36.099Z,2.82
2023-01-17T15:48:40.605Z,2.96
2023-01-17T15:51:11.035Z,2.51
2023-01-17T15:53:42.421Z,2.60
2023-01-17T15:56:23.805Z,3.02
2023-01-17T15:58:53.357Z,3.14
2023-01-17T16:01:31.120Z,2.92
2023-01-17T16:04:00.756Z,2.44
2023-01-17T16:06:45.719Z,2.09
2023-01-17T16:09:23.618Z,1.39
2023-01-17T16:11:53.213Z,2.38
2023-01-17T16:14:25.423Z,2.47
2023-01-17T16:16:59.267Z,2.52
2023-01-17T16:19:28.826Z,2.12
2023-01-17T16:22:02.751Z,1.87
2023-01-17T16:24:33.484Z,1.54
2023-01-17T16:27:04.513Z,1.92
2023-01-17T16:29:34.224Z,2.20
2023-01-17T16:32:08.755Z,0.96
2023-01-17T16:34:38.511Z,1.48
2023-01-17T16:37:08.176Z,2.03
2023-01-17T16:39:37.713Z,0.91
2023-01-17T16:42:07.655Z,0.39
2023-01-17T16:44:39.984Z,0.30
2023-01-17T16:47:12.490Z,-0.09
2023-01-17T16:49:42.075Z,0.31
2023-01-17T16:52:11.843Z,0.69
2023-01-17T16:54:41.380Z,-0.11
2023-01-17T16:57:10.894Z,0.19
2023-01-17T16:59:50.440Z,0.04
2023-01-17T17:02:23.216Z,0.39
2023-01-17T17:04:53.096Z,0.46
2023-01-17T17:07:22.605Z,0.51
2023-01-17T17:09:52.135Z,1.21
2023-01-17T17:12:21.650Z,1.56
2023-01-17T17:14:51.163Z,1.40
2023-01-17T17:17:23.286Z,0.57
2023-01-17T17:19:52.803Z,1.46
2023-01-17T17:22:22.341Z,1.12
2023-01-17T17:24:51.845Z,1.78
2023-01-17T17:27:26.299Z,1.48
2023-01-17T17:29:56.125Z,1.81
2023-01-17T17:32:28.196Z,1.67
2023-01-17T17:34:57.779Z,1.21
2023-01-17T17:37:29.089Z,-0.36
2023-01-17T17:39:58.719Z,-0.33
2023-01-17T17:42:28.349Z,-0.46
2023-01-17T17:44:57.898Z,-0.04
2023-01-17T17:47:30.579Z,0.29
2023-01-17T17:50:00.224Z,-0.23
2023-01-17T17:52:30.260Z,0.12
2023-01-17T17:54:59.813Z,0.36
2023-01-17T17:57:29.385Z,0.98
2023-01-17T17:59:59.840Z,0.94
2023-01-17T18:02:31.948Z,0.49
2023-01-17T18:05:02.359Z,1.13
2023-01-17T18:07:33.448Z,0.98
2023-01-17T18:10:03.791Z,-0.29
2023-01-17T18:12:33.333Z,-0.28
2023-01-17T18:15:02.882Z,0.04
2023-01-17T18:17:35.337Z,0.77
2023-01-17T18:20:07.451Z,0.75
2023-01-17T18:22:37.470Z,1.51
2023-01-17T18:25:08.054Z,1.31
2023-01-17T18:27:38.769Z,1.12
2023-01-17T18:30:12.584Z,0.82
2023-01-17T18:32:44.727Z,0.37
2023-01-17T18:35:14.308Z,0.65
2023-01-17T18:37:43.854Z,1.13
2023-01-17T18:40:14.222Z,0.94
2023-01-17T18:42:43.788Z,1.50
2023-01-17T18:45:13.767Z,-0.53
2023-01-17T18:47:45.878Z,0.16
2023-01-17T18:50:15.468Z,-0.17
2023-01-17T18:52:44.975Z,-0.46
2023-01-17T18:55:14.489Z,-0.67
2023-01-17T18:57:43.999Z,-0.24
2023-01-17T19:00:16.456Z,-0.68
2023-01-17T19:02:51.179Z,-0.58
2023-01-17T19:05:21.742Z,0.35
2023-01-17T19:07:51.290Z,-0.89
2023-01-17T19:10:21.113Z,-0.98
2023-01-17T19:12:50.629Z,-0.43
2023-01-17T19:15:20.136Z,0.22
2023-01-17T19:17:52.316Z,-0.94
2023-01-17T19:20:21.845Z,-1.53
2023-01-17T19:22:51.882Z,-1.69
2023-01-17T19:25:22.976Z,-1.42
2023-01-17T19:27:52.514Z,-1.43
2023-01-17T19:30:22.762Z,-1.39
2023-01-17T19:32:56.031Z,-1.05
2023-01-17T19:35:25.857Z,-0.33
2023-01-17T19:37:56.071Z,-0.13
2023-01-17T19:40:26.368Z,-0.51
2023-01-17T19:42:56.136Z,-0.29
2023-01-17T19:45:25.954Z,0.17
2023-01-17T19:47:58.259Z,-0.78
2023-01-17T19:50:27.933Z,-0.34
2023-01-17T19:52:57.435Z,-0.75
2023-01-17T19:55:27.074Z,-0.92
2023-01-17T19:57:57.322Z,-0.58
2023-01-17T20:00:30.369Z,-1.23
2023-01-17T20:03:02.692Z,-1.26
2023-01-17T20:05:32.353Z,-0.59
2023-01-17T20:08:02.179Z,-0.73
2023-01-17T20:10:32.149Z,-0.63
2023-01-17T20:13:02.069Z,-0.20
2023-01-17T20:15:31.884Z,-0.02
2023-01-17T20:18:04.986Z,-0.60
2023-01-17T20:20:41.357Z,-0.92
2023-01-17T20:23:15.680Z,-0.57
2023-01-17T20:25:45.663Z,-0.75
2023-01-17T20:28:15.207Z,-0.68
2023-01-17T20:30:45.660Z,-0.46
2023-01-17T20:33:18.802Z,-0.53
2023-01-17T20:35:53.472Z,-0.12
2023-01-17T20:38:31.158Z,-0.65
2023-01-17T20:41:00.746Z,-0.60
2023-01-17T20:43:30.313Z,0.06
2023-01-17T20:45:59.880Z,-0.90
2023-01-17T20:48:32.280Z,-0.37
2023-01-17T20:51:05.872Z,-0.20
2023-01-17T20:53:37.173Z,-0.34
2023-01-17T20:56:08.000Z,-0.78
2023-01-17T20:58:38.564Z,-1.20
2023-01-17T21:01:10.282Z,-0.51
2023-01-17T21:03:42.637Z,-1.28
2023-01-17T21:06:14.416Z,-0.89
2023-01-17T21:08:46.219Z,-0.76
2023-01-17T21:11:18.758Z,-0.69
2023-01-17T21:13:48.802Z,0.17
2023-01-17T21:16:20.390Z,-1.07
2023-01-17T21:18:54.041Z,-0.19
2023-01-17T21:21:25.385Z,-0.03
2023-01-17T21:23:57.470Z,-0.25
2023-01-17T21:26:29.205Z,0.09
2023-01-17T21:29:01.602Z,-0.35
2023-01-17T21:31:34.848Z,0.45
2023-01-17T21:34:09.135Z,0.55
2023-01-17T21:36:40.605Z,0.75
2023-01-17T21:39:15.741Z,-0.41
2023-01-17T21:41:48.218Z,-0.05
2023-01-17T21:44:21.865Z,-0.99
2023-01-17T21:46:55.945Z,-1.01
2023-01-17T21:49:28.548Z,0.28
2023-01-17T21:52:10.661Z,-1.03
2023-01-17T21:54:52.764Z,-1.51
2023-01-17T21:57:36.537Z,-0.55
2023-01-17T22:00:08.074Z,0.08
2023-01-17T22:02:44.112Z,-0.54
2023-01-17T22:05:18.574Z,-0.63
2023-01-17T22:08:00.730Z,-0.78
2023-01-17T22:10:30.456Z,-1.04
2023-01-17T22:13:00.063Z,-0.96
2023-01-17T22:15:29.665Z,-0.81
2023-01-17T22:17:59.616Z,-0.22
2023-01-17T22:20:32.420Z,-0.93
2023-01-17T22:23:01.938Z,-0.42
2023-01-17T22:25:31.452Z,-0.08
2023-01-17T22:28:00.970Z,-0.30
2023-01-17T22:30:30.476Z,-0.62
2023-01-17T22:33:00.553Z,-0.81
2023-01-17T22:35:33.765Z,-0.58
2023-01-17T22:38:03.286Z,-0.28
2023-01-17T22:40:38.261Z,-0.43
2023-01-17T22:43:07.865Z,-0.31
2023-01-17T22:45:37.379Z,-0.70
2023-01-17T22:48:07.919Z,-0.92
2023-01-17T22:50:40.083Z,-0.66
2023-01-17T22:53:10.451Z,-1.08
2023-01-17T22:55:40.024Z,-0.44
2023-01-17T22:58:09.527Z,-0.78
2023-01-17T23:00:39.020Z,-0.75
2023-01-17T23:03:08.650Z,-0.71
2023-01-17T23:05:46.520Z,-1.56
2023-01-17T23:08:16.028Z,-1.38
2023-01-17T23:10:58.086Z,-1.23
2023-01-17T23:13:27.984Z,-0.62
2023-01-17T23:16:10.179Z,-0.20
2023-01-17T23:18:52.266Z,0.13
2023-01-17T23:21:44.595Z,-0.08
2023-01-17T23:24:14.528Z,-0.35
2023-01-17T23:27:04.070Z,-0.21
2023-01-17T23:29:31.018Z,-0.99
2023-01-17T23:32:00.557Z,-1.08
2023-01-17T23:34:30.166Z,-1.53
2023-01-17T23:37:02.276Z,-1.14
2023-01-17T23:39:31.828Z,-0.77
2023-01-17T23:42:13.874Z,-0.58
2023-01-17T23:44:43.401Z,-0.40
2023-01-17T23:47:12.901Z,-0.48
2023-01-17T23:49:43.545Z,-0.75
2023-01-17T23:52:15.625Z,-1.13
2023-01-17T23:54:45.359Z,-0.60
2023-01-17T23:57:14.918Z,-1.02
2023-01-17T23:59:44.919Z,-1.03
